sensor_id;sensor_type;location;lat;lon;timestamp;P1;durP1;ratioP1;P2;durP2;ratioP2
3417;SDS011;68007;51.312;12.372;2023-11-19T00:00:36;2.67;;;2.47;;
3417;SDS011;68007;51.312;12.372;2023-11-19T00:03:04;3.17;;;2.40;;
3417;SDS011;68007;51.312;12.372;2023-11-19T00:05:31;2.50;;;2.20;;
3417;SDS011;68007;51.312;12.372;2023-11-19T00:07:59;3.83;;;2.90;;
3417;SDS011;68007;51.312;12.372;2023-11-19T00:10:27;3.83;;;2.43;;
3417;SDS011;68007;51.312;12.372;2023-11-19T00:12:56;3.10;;;2.60;;
3417;SDS011;68007;51.312;12.372;2023-11-19T00:15:25;2.27;;;2.07;;
3417;SDS011;68007;51.312;12.372;2023-11-19T00:17:52;2.60;;;2.10;;
3417;SDS011;68007;51.312;12.372;2023-11-19T00:20:20;2.60;;;2.10;;
3417;SDS011;68007;51.312;12.372;2023-11-19T00:22:48;1.87;;;1.73;;
3417;SDS011;68007;51.312;12.372;2023-11-19T00:25:17;4.00;;;2.10;;
3417;SDS011;68007;51.312;12.372;2023-11-19T00:27:45;2.20;;;2.00;;
3417;SDS011;68007;51.312;12.372;2023-11-19T00:30:13;2.40;;;2.07;;
3417;SDS011;68007;51.312;12.372;2023-11-19T00:32:42;2.60;;;1.70;;
3417;SDS011;68007;51.312;12.372;2023-11-19T00:35:11;2.70;;;2.20;;
3417;SDS011;68007;51.312;12.372;2023-11-19T00:37:39;2.43;;;1.67;;
3417;SDS011;68007;51.312;12.372;2023-11-19T00:40:08;2.37;;;1.53;;
3417;SDS011;68007;51.312;12.372;2023-11-19T00:42:37;1.70;;;1.50;;
3417;SDS011;68007;51.312;12.372;2023-11-19T00:45:04;2.67;;;1.57;;
3417;SDS011;68007;51.312;12.372;2023-11-19T00:47:35;2.17;;;1.73;;
3417;SDS011;68007;51.312;12.372;2023-11-19T00:50:04;3.10;;;1.80;;
3417;SDS011;68007;51.312;12.372;2023-11-19T00:52:35;1.83;;;1.50;;
3417;SDS011;68007;51.312;12.372;2023-11-19T00:55:03;2.03;;;1.77;;
3417;SDS011;68007;51.312;12.372;2023-11-19T00:57:31;1.60;;;1.33;;
3417;SDS011;68007;51.312;12.372;2023-11-19T00:59:59;1.50;;;1.40;;
3417;SDS011;68007;51.312;12.372;2023-11-19T01:02:26;1.53;;;1.30;;
3417;SDS011;68007;51.312;12.372;2023-11-19T01:04:53;1.30;;;1.20;;
3417;SDS011;68007;51.312;12.372;2023-11-19T01:07:23;2.00;;;1.30;;
3417;SDS011;68007;51.312;12.372;2023-11-19T01:09:52;1.50;;;1.40;;
3417;SDS011;68007;51.312;12.372;2023-11-19T01:12:19;2.27;;;1.50;;
3417;SDS011;68007;51.312;12.372;2023-11-19T01:14:47;1.30;;;1.20;;
3417;SDS011;68007;51.312;12.372;2023-11-19T01:17:15;2.90;;;1.30;;
3417;SDS011;68007;51.312;12.372;2023-11-19T01:19:43;2.17;;;1.40;;
3417;SDS011;68007;51.312;12.372;2023-11-19T01:22:10;3.33;;;3.03;;
3417;SDS011;68007;51.312;12.372;2023-11-19T01:24:39;10.70;;;6.70;;
3417;SDS011;68007;51.312;12.372;2023-11-19T01:27:06;10.63;;;7.50;;
3417;SDS011;68007;51.312;12.372;2023-11-19T01:29:34;13.40;;;8.60;;
3417;SDS011;68007;51.312;12.372;2023-11-19T01:32:04;12.07;;;7.93;;
3417;SDS011;68007;51.312;12.372;2023-11-19T01:34:32;24.03;;;11.80;;
3417;SDS011;68007;51.312;12.372;2023-11-19T01:36:59;30.70;;;14.63;;
3417;SDS011;68007;51.312;12.372;2023-11-19T01:39:27;36.17;;;13.03;;
3417;SDS011;68007;51.312;12.372;2023-11-19T01:41:55;21.73;;;8.50;;
3417;SDS011;68007;51.312;12.372;2023-11-19T01:44:23;20.80;;;6.60;;
3417;SDS011;68007;51.312;12.372;2023-11-19T01:46:50;11.07;;;3.80;;
3417;SDS011;68007;51.312;12.372;2023-11-19T01:49:19;6.80;;;3.17;;
3417;SDS011;68007;51.312;12.372;2023-11-19T01:51:47;3.07;;;1.97;;
3417;SDS011;68007;51.312;12.372;2023-11-19T01:54:15;2.30;;;1.40;;
3417;SDS011;68007;51.312;12.372;2023-11-19T01:56:42;1.60;;;1.30;;
3417;SDS011;68007;51.312;12.372;2023-11-19T01:59:11;2.53;;;1.50;;
3417;SDS011;68007;51.312;12.372;2023-11-19T02:01:40;1.23;;;1.13;;
3417;SDS011;68007;51.312;12.372;2023-11-19T02:04:08;1.30;;;1.00;;
3417;SDS011;68007;51.312;12.372;2023-11-19T02:06:36;1.23;;;1.00;;
3417;SDS011;68007;51.312;12.372;2023-11-19T02:09:07;1.10;;;1.00;;
3417;SDS011;68007;51.312;12.372;2023-11-19T02:11:36;1.50;;;1.40;;
3417;SDS011;68007;51.312;12.372;2023-11-19T02:14:03;1.50;;;1.10;;
3417;SDS011;68007;51.312;12.372;2023-11-19T02:16:33;6.00;;;1.37;;
3417;SDS011;68007;51.312;12.372;2023-11-19T02:19:00;1.60;;;1.30;;
3417;SDS011;68007;51.312;12.372;2023-11-19T02:21:27;1.60;;;1.20;;
3417;SDS011;68007;51.312;12.372;2023-11-19T02:23:55;1.50;;;1.17;;
3417;SDS011;68007;51.312;12.372;2023-11-19T02:26:24;1.63;;;1.10;;
3417;SDS011;68007;51.312;12.372;2023-11-19T02:28:59;1.27;;;1.10;;
3417;SDS011;68007;51.312;12.372;2023-11-19T02:31:27;1.00;;;1.00;;
3417;SDS011;68007;51.312;12.372;2023-11-19T02:33:54;1.97;;;1.30;;
3417;SDS011;68007;51.312;12.372;2023-11-19T02:36:22;1.20;;;1.10;;
3417;SDS011;68007;51.312;12.372;2023-11-19T02:38:49;1.40;;;1.30;;
3417;SDS011;68007;51.312;12.372;2023-11-19T02:41:16;1.27;;;1.17;;
3417;SDS011;68007;51.312;12.372;2023-11-19T02:43:44;1.23;;;1.13;;
3417;SDS011;68007;51.312;12.372;2023-11-19T02:46:15;1.50;;;1.23;;
3417;SDS011;68007;51.312;12.372;2023-11-19T02:48:43;2.00;;;1.40;;
3417;SDS011;68007;51.312;12.372;2023-11-19T02:51:11;1.60;;;1.50;;
3417;SDS011;68007;51.312;12.372;2023-11-19T02:53:39;1.60;;;1.10;;
3417;SDS011;68007;51.312;12.372;2023-11-19T02:56:07;1.30;;;1.20;;
3417;SDS011;68007;51.312;12.372;2023-11-19T02:58:45;1.37;;;1.13;;
3417;SDS011;68007;51.312;12.372;2023-11-19T03:01:20;1.83;;;1.30;;
3417;SDS011;68007;51.312;12.372;2023-11-19T03:03:55;1.30;;;1.00;;
3417;SDS011;68007;51.312;12.372;2023-11-19T03:06:23;1.33;;;1.23;;
3417;SDS011;68007;51.312;12.372;2023-11-19T03:08:50;1.53;;;0.97;;
3417;SDS011;68007;51.312;12.372;2023-11-19T03:11:18;1.73;;;1.30;;
3417;SDS011;68007;51.312;12.372;2023-11-19T03:13:45;1.37;;;1.20;;
3417;SDS011;68007;51.312;12.372;2023-11-19T03:16:13;3.33;;;1.50;;
3417;SDS011;68007;51.312;12.372;2023-11-19T03:18:42;2.07;;;1.20;;
3417;SDS011;68007;51.312;12.372;2023-11-19T03:21:10;1.00;;;0.90;;
3417;SDS011;68007;51.312;12.372;2023-11-19T03:23:38;1.37;;;1.10;;
3417;SDS011;68007;51.312;12.372;2023-11-19T03:26:06;1.90;;;0.97;;
3417;SDS011;68007;51.312;12.372;2023-11-19T03:28:34;3.00;;;1.20;;
3417;SDS011;68007;51.312;12.372;2023-11-19T03:31:04;0.90;;;0.80;;
3417;SDS011;68007;51.312;12.372;2023-11-19T03:33:35;1.70;;;1.07;;
3417;SDS011;68007;51.312;12.372;2023-11-19T03:36:03;1.30;;;1.20;;
3417;SDS011;68007;51.312;12.372;2023-11-19T03:38:31;1.07;;;1.00;;
3417;SDS011;68007;51.312;12.372;2023-11-19T03:40:58;1.33;;;1.20;;
3417;SDS011;68007;51.312;12.372;2023-11-19T03:43:26;1.33;;;1.23;;
3417;SDS011;68007;51.312;12.372;2023-11-19T03:45:54;2.07;;;1.10;;
3417;SDS011;68007;51.312;12.372;2023-11-19T03:48:21;1.00;;;1.00;;
3417;SDS011;68007;51.312;12.372;2023-11-19T03:50:50;1.50;;;1.40;;
3417;SDS011;68007;51.312;12.372;2023-11-19T03:53:18;1.80;;;1.20;;
3417;SDS011;68007;51.312;12.372;2023-11-19T03:55:45;3.93;;;1.30;;
3417;SDS011;68007;51.312;12.372;2023-11-19T03:58:13;1.20;;;1.10;;
3417;SDS011;68007;51.312;12.372;2023-11-19T04:00:40;2.00;;;1.23;;
3417;SDS011;68007;51.312;12.372;2023-11-19T04:03:08;1.10;;;1.00;;
3417;SDS011;68007;51.312;12.372;2023-11-19T04:05:35;1.90;;;1.10;;
3417;SDS011;68007;51.312;12.372;2023-11-19T04:08:04;3.87;;;1.17;;
3417;SDS011;68007;51.312;12.372;2023-11-19T04:10:32;1.10;;;1.00;;
3417;SDS011;68007;51.312;12.372;2023-11-19T04:12:59;1.03;;;0.93;;
3417;SDS011;68007;51.312;12.372;2023-11-19T04:15:27;0.93;;;0.90;;
3417;SDS011;68007;51.312;12.372;2023-11-19T04:17:54;3.63;;;0.90;;
3417;SDS011;68007;51.312;12.372;2023-11-19T04:20:22;1.60;;;0.90;;
3417;SDS011;68007;51.312;12.372;2023-11-19T04:22:49;1.10;;;1.00;;
3417;SDS011;68007;51.312;12.372;2023-11-19T04:25:19;1.27;;;0.80;;
3417;SDS011;68007;51.312;12.372;2023-11-19T04:27:46;2.53;;;0.97;;
3417;SDS011;68007;51.312;12.372;2023-11-19T04:30:14;1.97;;;1.03;;
3417;SDS011;68007;51.312;12.372;2023-11-19T04:32:42;1.00;;;0.90;;
3417;SDS011;68007;51.312;12.372;2023-11-19T04:35:09;1.27;;;0.80;;
3417;SDS011;68007;51.312;12.372;2023-11-19T04:37:37;1.37;;;1.00;;
3417;SDS011;68007;51.312;12.372;2023-11-19T04:40:05;0.90;;;0.80;;
3417;SDS011;68007;51.312;12.372;2023-11-19T04:42:34;0.80;;;0.80;;
3417;SDS011;68007;51.312;12.372;2023-11-19T04:45:02;1.50;;;0.90;;
3417;SDS011;68007;51.312;12.372;2023-11-19T04:47:31;1.67;;;0.80;;
3417;SDS011;68007;51.312;12.372;2023-11-19T04:50:00;0.93;;;0.87;;
3417;SDS011;68007;51.312;12.372;2023-11-19T04:52:27;0.97;;;0.87;;
3417;SDS011;68007;51.312;12.372;2023-11-19T04:54:55;1.07;;;0.70;;
3417;SDS011;68007;51.312;12.372;2023-11-19T04:57:22;2.93;;;1.10;;
3417;SDS011;68007;51.312;12.372;2023-11-19T04:59:51;0.80;;;0.70;;
3417;SDS011;68007;51.312;12.372;2023-11-19T05:02:19;1.00;;;0.80;;
3417;SDS011;68007;51.312;12.372;2023-11-19T05:04:46;0.70;;;0.70;;
3417;SDS011;68007;51.312;12.372;2023-11-19T05:07:14;0.80;;;0.80;;
3417;SDS011;68007;51.312;12.372;2023-11-19T05:09:42;1.50;;;0.93;;
3417;SDS011;68007;51.312;12.372;2023-11-19T05:12:09;1.03;;;0.93;;
3417;SDS011;68007;51.312;12.372;2023-11-19T05:14:38;1.20;;;1.10;;
3417;SDS011;68007;51.312;12.372;2023-11-19T05:17:07;1.83;;;1.07;;
3417;SDS011;68007;51.312;12.372;2023-11-19T05:19:34;0.73;;;0.73;;
3417;SDS011;68007;51.312;12.372;2023-11-19T05:22:02;1.00;;;0.90;;
3417;SDS011;68007;51.312;12.372;2023-11-19T05:24:31;1.93;;;1.00;;
3417;SDS011;68007;51.312;12.372;2023-11-19T05:26:58;0.77;;;0.77;;
3417;SDS011;68007;51.312;12.372;2023-11-19T05:29:26;0.80;;;0.70;;
3417;SDS011;68007;51.312;12.372;2023-11-19T05:31:54;1.83;;;1.00;;
3417;SDS011;68007;51.312;12.372;2023-11-19T05:34:22;2.10;;;1.00;;
3417;SDS011;68007;51.312;12.372;2023-11-19T05:36:50;0.70;;;0.70;;
3417;SDS011;68007;51.312;12.372;2023-11-19T05:39:18;0.93;;;0.77;;
3417;SDS011;68007;51.312;12.372;2023-11-19T05:41:45;1.37;;;0.87;;
3417;SDS011;68007;51.312;12.372;2023-11-19T05:44:13;0.63;;;0.60;;
3417;SDS011;68007;51.312;12.372;2023-11-19T05:46:41;0.97;;;0.97;;
3417;SDS011;68007;51.312;12.372;2023-11-19T05:49:10;0.80;;;0.77;;
3417;SDS011;68007;51.312;12.372;2023-11-19T05:51:40;1.10;;;0.90;;
3417;SDS011;68007;51.312;12.372;2023-11-19T05:54:08;2.63;;;1.10;;
3417;SDS011;68007;51.312;12.372;2023-11-19T05:56:36;0.70;;;0.70;;
3417;SDS011;68007;51.312;12.372;2023-11-19T05:59:04;1.00;;;0.77;;
3417;SDS011;68007;51.312;12.372;2023-11-19T06:01:34;0.60;;;0.60;;
3417;SDS011;68007;51.312;12.372;2023-11-19T06:04:02;1.10;;;0.80;;
3417;SDS011;68007;51.312;12.372;2023-11-19T06:06:30;0.70;;;0.70;;
3417;SDS011;68007;51.312;12.372;2023-11-19T06:08:59;0.80;;;0.70;;
3417;SDS011;68007;51.312;12.372;2023-11-19T06:11:27;0.83;;;0.70;;
3417;SDS011;68007;51.312;12.372;2023-11-19T06:13:55;1.43;;;0.70;;
3417;SDS011;68007;51.312;12.372;2023-11-19T06:16:23;0.70;;;0.70;;
3417;SDS011;68007;51.312;12.372;2023-11-19T06:18:50;1.00;;;0.70;;
3417;SDS011;68007;51.312;12.372;2023-11-19T06:21:19;0.80;;;0.73;;
3417;SDS011;68007;51.312;12.372;2023-11-19T06:23:46;0.70;;;0.70;;
3417;SDS011;68007;51.312;12.372;2023-11-19T06:26:16;0.70;;;0.70;;
3417;SDS011;68007;51.312;12.372;2023-11-19T06:28:44;0.60;;;0.57;;
3417;SDS011;68007;51.312;12.372;2023-11-19T06:31:12;1.47;;;0.90;;
3417;SDS011;68007;51.312;12.372;2023-11-19T06:33:41;1.43;;;0.80;;
3417;SDS011;68007;51.312;12.372;2023-11-19T06:36:09;0.67;;;0.67;;
3417;SDS011;68007;51.312;12.372;2023-11-19T06:38:36;0.70;;;0.70;;
3417;SDS011;68007;51.312;12.372;2023-11-19T06:41:06;0.70;;;0.60;;
3417;SDS011;68007;51.312;12.372;2023-11-19T06:43:37;1.53;;;0.60;;
3417;SDS011;68007;51.312;12.372;2023-11-19T06:46:04;0.70;;;0.60;;
3417;SDS011;68007;51.312;12.372;2023-11-19T06:48:32;0.90;;;0.70;;
3417;SDS011;68007;51.312;12.372;2023-11-19T06:51:00;4.30;;;0.93;;
3417;SDS011;68007;51.312;12.372;2023-11-19T06:53:27;0.70;;;0.60;;
3417;SDS011;68007;51.312;12.372;2023-11-19T06:55:55;0.63;;;0.63;;
3417;SDS011;68007;51.312;12.372;2023-11-19T06:58:23;0.70;;;0.70;;
3417;SDS011;68007;51.312;12.372;2023-11-19T07:00:52;1.30;;;0.70;;
3417;SDS011;68007;51.312;12.372;2023-11-19T07:03:19;0.70;;;0.70;;
3417;SDS011;68007;51.312;12.372;2023-11-19T07:05:47;0.80;;;0.80;;
3417;SDS011;68007;51.312;12.372;2023-11-19T07:08:14;0.73;;;0.67;;
3417;SDS011;68007;51.312;12.372;2023-11-19T07:10:42;0.90;;;0.67;;
3417;SDS011;68007;51.312;12.372;2023-11-19T07:13:09;0.70;;;0.70;;
3417;SDS011;68007;51.312;12.372;2023-11-19T07:15:37;0.67;;;0.67;;
3417;SDS011;68007;51.312;12.372;2023-11-19T07:18:07;1.30;;;0.70;;
3417;SDS011;68007;51.312;12.372;2023-11-19T07:20:34;0.60;;;0.50;;
3417;SDS011;68007;51.312;12.372;2023-11-19T07:23:03;3.03;;;0.60;;
3417;SDS011;68007;51.312;12.372;2023-11-19T07:25:31;0.80;;;0.70;;
3417;SDS011;68007;51.312;12.372;2023-11-19T07:28:00;1.27;;;0.70;;
3417;SDS011;68007;51.312;12.372;2023-11-19T07:30:30;0.77;;;0.70;;
3417;SDS011;68007;51.312;12.372;2023-11-19T07:32:58;0.70;;;0.63;;
3417;SDS011;68007;51.312;12.372;2023-11-19T07:35:27;0.83;;;0.60;;
3417;SDS011;68007;51.312;12.372;2023-11-19T07:37:56;0.87;;;0.60;;
3417;SDS011;68007;51.312;12.372;2023-11-19T07:40:24;0.60;;;0.60;;
3417;SDS011;68007;51.312;12.372;2023-11-19T07:42:51;0.60;;;0.60;;
3417;SDS011;68007;51.312;12.372;2023-11-19T07:45:19;0.80;;;0.70;;
3417;SDS011;68007;51.312;12.372;2023-11-19T07:47:47;0.70;;;0.70;;
3417;SDS011;68007;51.312;12.372;2023-11-19T07:50:14;0.80;;;0.80;;
3417;SDS011;68007;51.312;12.372;2023-11-19T07:52:46;1.67;;;0.77;;
3417;SDS011;68007;51.312;12.372;2023-11-19T07:55:14;0.70;;;0.70;;
3417;SDS011;68007;51.312;12.372;2023-11-19T07:57:41;1.23;;;1.13;;
3417;SDS011;68007;51.312;12.372;2023-11-19T08:00:09;1.23;;;1.13;;
3417;SDS011;68007;51.312;12.372;2023-11-19T08:02:39;1.40;;;1.10;;
3417;SDS011;68007;51.312;12.372;2023-11-19T08:05:06;1.10;;;1.00;;
3417;SDS011;68007;51.312;12.372;2023-11-19T08:07:34;0.83;;;0.73;;
3417;SDS011;68007;51.312;12.372;2023-11-19T08:10:03;1.20;;;1.10;;
3417;SDS011;68007;51.312;12.372;2023-11-19T08:12:35;1.20;;;1.10;;
3417;SDS011;68007;51.312;12.372;2023-11-19T08:15:03;0.90;;;0.90;;
3417;SDS011;68007;51.312;12.372;2023-11-19T08:17:31;2.70;;;1.03;;
3417;SDS011;68007;51.312;12.372;2023-11-19T08:19:59;1.63;;;1.10;;
3417;SDS011;68007;51.312;12.372;2023-11-19T08:22:27;1.00;;;0.90;;
3417;SDS011;68007;51.312;12.372;2023-11-19T08:24:54;1.40;;;1.30;;
3417;SDS011;68007;51.312;12.372;2023-11-19T08:27:23;5.50;;;1.60;;
3417;SDS011;68007;51.312;12.372;2023-11-19T08:29:53;1.57;;;1.00;;
3417;SDS011;68007;51.312;12.372;2023-11-19T08:32:22;1.40;;;1.13;;
3417;SDS011;68007;51.312;12.372;2023-11-19T08:34:50;1.53;;;1.30;;
3417;SDS011;68007;51.312;12.372;2023-11-19T08:37:17;3.40;;;1.50;;
3417;SDS011;68007;51.312;12.372;2023-11-19T08:39:46;1.93;;;1.33;;
3417;SDS011;68007;51.312;12.372;2023-11-19T08:42:14;4.40;;;1.80;;
3417;SDS011;68007;51.312;12.372;2023-11-19T08:44:43;1.93;;;1.70;;
3417;SDS011;68007;51.312;12.372;2023-11-19T08:47:16;1.43;;;1.33;;
3417;SDS011;68007;51.312;12.372;2023-11-19T08:49:44;2.00;;;1.53;;
3417;SDS011;68007;51.312;12.372;2023-11-19T08:52:12;2.00;;;1.60;;
3417;SDS011;68007;51.312;12.372;2023-11-19T08:54:42;1.97;;;1.20;;
3417;SDS011;68007;51.312;12.372;2023-11-19T08:57:10;1.40;;;1.20;;
3417;SDS011;68007;51.312;12.372;2023-11-19T08:59:37;6.97;;;1.40;;
3417;SDS011;68007;51.312;12.372;2023-11-19T09:02:06;2.03;;;1.23;;
3417;SDS011;68007;51.312;12.372;2023-11-19T09:04:33;1.60;;;1.50;;
3417;SDS011;68007;51.312;12.372;2023-11-19T09:07:01;3.17;;;1.90;;
3417;SDS011;68007;51.312;12.372;2023-11-19T09:09:30;1.47;;;1.00;;
3417;SDS011;68007;51.312;12.372;2023-11-19T09:12:01;1.93;;;1.30;;
3417;SDS011;68007;51.312;12.372;2023-11-19T09:14:29;5.80;;;1.27;;
3417;SDS011;68007;51.312;12.372;2023-11-19T09:16:57;2.23;;;1.20;;
3417;SDS011;68007;51.312;12.372;2023-11-19T09:19:26;4.60;;;1.17;;
3417;SDS011;68007;51.312;12.372;2023-11-19T09:21:53;1.57;;;1.20;;
3417;SDS011;68007;51.312;12.372;2023-11-19T09:24:21;1.43;;;1.20;;
3417;SDS011;68007;51.312;12.372;2023-11-19T09:26:49;2.27;;;1.20;;
3417;SDS011;68007;51.312;12.372;2023-11-19T09:29:16;1.67;;;1.23;;
3417;SDS011;68007;51.312;12.372;2023-11-19T09:31:43;1.43;;;0.90;;
3417;SDS011;68007;51.312;12.372;2023-11-19T09:34:11;2.30;;;0.83;;
3417;SDS011;68007;51.312;12.372;2023-11-19T09:36:40;2.30;;;1.10;;
3417;SDS011;68007;51.312;12.372;2023-11-19T09:39:09;2.33;;;1.20;;
3417;SDS011;68007;51.312;12.372;2023-11-19T09:41:37;1.90;;;1.13;;
3417;SDS011;68007;51.312;12.372;2023-11-19T09:44:04;2.87;;;1.30;;
3417;SDS011;68007;51.312;12.372;2023-11-19T09:46:32;3.37;;;1.30;;
3417;SDS011;68007;51.312;12.372;2023-11-19T09:49:00;3.13;;;1.03;;
3417;SDS011;68007;51.312;12.372;2023-11-19T09:51:29;4.40;;;1.30;;
3417;SDS011;68007;51.312;12.372;2023-11-19T09:53:58;3.90;;;1.17;;
3417;SDS011;68007;51.312;12.372;2023-11-19T09:56:26;2.00;;;1.13;;
3417;SDS011;68007;51.312;12.372;2023-11-19T09:58:56;3.10;;;1.27;;
3417;SDS011;68007;51.312;12.372;2023-11-19T10:01:23;4.00;;;1.13;;
3417;SDS011;68007;51.312;12.372;2023-11-19T10:03:51;1.63;;;1.23;;
3417;SDS011;68007;51.312;12.372;2023-11-19T10:06:23;2.23;;;1.10;;
3417;SDS011;68007;51.312;12.372;2023-11-19T10:08:53;3.00;;;1.10;;
3417;SDS011;68007;51.312;12.372;2023-11-19T10:11:22;5.23;;;1.50;;
3417;SDS011;68007;51.312;12.372;2023-11-19T10:13:50;2.60;;;1.20;;
3417;SDS011;68007;51.312;12.372;2023-11-19T10:16:19;7.73;;;1.80;;
3417;SDS011;68007;51.312;12.372;2023-11-19T10:18:46;5.27;;;1.73;;
3417;SDS011;68007;51.312;12.372;2023-11-19T10:21:17;2.57;;;1.30;;
3417;SDS011;68007;51.312;12.372;2023-11-19T10:23:48;3.97;;;1.37;;
3417;SDS011;68007;51.312;12.372;2023-11-19T10:26:17;3.43;;;1.50;;
3417;SDS011;68007;51.312;12.372;2023-11-19T10:28:47;4.50;;;1.73;;
3417;SDS011;68007;51.312;12.372;2023-11-19T10:31:14;3.47;;;1.30;;
3417;SDS011;68007;51.312;12.372;2023-11-19T10:33:43;5.43;;;1.60;;
3417;SDS011;68007;51.312;12.372;2023-11-19T10:36:10;2.53;;;1.50;;
3417;SDS011;68007;51.312;12.372;2023-11-19T10:38:39;3.07;;;1.30;;
3417;SDS011;68007;51.312;12.372;2023-11-19T10:41:07;3.20;;;1.20;;
3417;SDS011;68007;51.312;12.372;2023-11-19T10:43:42;2.73;;;1.37;;
3417;SDS011;68007;51.312;12.372;2023-11-19T10:46:13;1.97;;;1.30;;
3417;SDS011;68007;51.312;12.372;2023-11-19T10:48:46;4.57;;;2.27;;
3417;SDS011;68007;51.312;12.372;2023-11-19T10:51:14;5.60;;;1.77;;
3417;SDS011;68007;51.312;12.372;2023-11-19T10:53:47;1.93;;;1.40;;
3417;SDS011;68007;51.312;12.372;2023-11-19T10:56:17;2.60;;;1.23;;
3417;SDS011;68007;51.312;12.372;2023-11-19T10:58:52;3.00;;;1.40;;
3417;SDS011;68007;51.312;12.372;2023-11-19T11:01:22;3.90;;;1.43;;
3417;SDS011;68007;51.312;12.372;2023-11-19T11:03:53;4.47;;;1.63;;
3417;SDS011;68007;51.312;12.372;2023-11-19T11:06:22;6.30;;;1.47;;
3417;SDS011;68007;51.312;12.372;2023-11-19T11:08:51;8.63;;;1.73;;
3417;SDS011;68007;51.312;12.372;2023-11-19T11:11:18;12.47;;;2.70;;
3417;SDS011;68007;51.312;12.372;2023-11-19T11:13:49;5.60;;;1.67;;
3417;SDS011;68007;51.312;12.372;2023-11-19T11:16:18;9.53;;;2.13;;
3417;SDS011;68007;51.312;12.372;2023-11-19T11:18:48;13.00;;;2.23;;
3417;SDS011;68007;51.312;12.372;2023-11-19T11:21:17;12.57;;;2.20;;
3417;SDS011;68007;51.312;12.372;2023-11-19T11:24:03;10.63;;;2.90;;
3417;SDS011;68007;51.312;12.372;2023-11-19T11:27:13;13.33;;;2.30;;
3417;SDS011;68007;51.312;12.372;2023-11-19T11:30:05;14.47;;;2.40;;
3417;SDS011;68007;51.312;12.372;2023-11-19T11:32:41;8.33;;;2.33;;
3417;SDS011;68007;51.312;12.372;2023-11-19T11:35:19;15.00;;;2.80;;
3417;SDS011;68007;51.312;12.372;2023-11-19T11:38:00;11.23;;;2.80;;
3417;SDS011;68007;51.312;12.372;2023-11-19T11:40:30;11.43;;;2.50;;
3417;SDS011;68007;51.312;12.372;2023-11-19T11:42:58;9.17;;;2.50;;
3417;SDS011;68007;51.312;12.372;2023-11-19T11:45:35;13.47;;;2.93;;
3417;SDS011;68007;51.312;12.372;2023-11-19T11:48:10;10.07;;;3.17;;
3417;SDS011;68007;51.312;12.372;2023-11-19T11:50:52;15.17;;;2.70;;
3417;SDS011;68007;51.312;12.372;2023-11-19T11:53:21;11.83;;;2.90;;
3417;SDS011;68007;51.312;12.372;2023-11-19T11:55:53;12.83;;;2.87;;
3417;SDS011;68007;51.312;12.372;2023-11-19T11:58:25;9.03;;;2.60;;
3417;SDS011;68007;51.312;12.372;2023-11-19T12:00:58;11.97;;;2.77;;
3417;SDS011;68007;51.312;12.372;2023-11-19T12:03:28;14.73;;;3.07;;
3417;SDS011;68007;51.312;12.372;2023-11-19T12:05:58;13.07;;;2.67;;
3417;SDS011;68007;51.312;12.372;2023-11-19T12:08:26;10.80;;;2.90;;
3417;SDS011;68007;51.312;12.372;2023-11-19T12:10:56;6.60;;;2.17;;
3417;SDS011;68007;51.312;12.372;2023-11-19T12:13:42;7.43;;;2.60;;
3417;SDS011;68007;51.312;12.372;2023-11-19T12:16:14;10.67;;;3.23;;
3417;SDS011;68007;51.312;12.372;2023-11-19T12:18:42;13.07;;;3.10;;
3417;SDS011;68007;51.312;12.372;2023-11-19T12:21:10;11.90;;;2.83;;
3417;SDS011;68007;51.312;12.372;2023-11-19T12:23:44;14.57;;;4.20;;
3417;SDS011;68007;51.312;12.372;2023-11-19T12:29:06;14.63;;;3.17;;
3417;SDS011;68007;51.312;12.372;2023-11-19T12:31:34;9.10;;;2.73;;
3417;SDS011;68007;51.312;12.372;2023-11-19T12:34:05;10.90;;;2.70;;
3417;SDS011;68007;51.312;12.372;2023-11-19T12:36:39;10.50;;;2.00;;
3417;SDS011;68007;51.312;12.372;2023-11-19T12:39:08;12.23;;;3.40;;
3417;SDS011;68007;51.312;12.372;2023-11-19T12:41:53;12.80;;;2.47;;
3417;SDS011;68007;51.312;12.372;2023-11-19T12:44:21;13.83;;;3.37;;
3417;SDS011;68007;51.312;12.372;2023-11-19T12:47:01;11.97;;;2.70;;
3417;SDS011;68007;51.312;12.372;2023-11-19T12:49:30;7.73;;;2.30;;
3417;SDS011;68007;51.312;12.372;2023-11-19T12:51:59;14.20;;;3.30;;
3417;SDS011;68007;51.312;12.372;2023-11-19T12:54:33;11.53;;;2.70;;
3417;SDS011;68007;51.312;12.372;2023-11-19T12:57:01;11.20;;;2.73;;
3417;SDS011;68007;51.312;12.372;2023-11-19T12:59:30;10.30;;;2.50;;
3417;SDS011;68007;51.312;12.372;2023-11-19T13:01:58;13.00;;;3.10;;
3417;SDS011;68007;51.312;12.372;2023-11-19T13:04:27;10.90;;;2.60;;
3417;SDS011;68007;51.312;12.372;2023-11-19T13:06:56;16.30;;;3.00;;
3417;SDS011;68007;51.312;12.372;2023-11-19T13:09:25;11.73;;;2.77;;
3417;SDS011;68007;51.312;12.372;2023-11-19T13:11:54;8.23;;;2.73;;
3417;SDS011;68007;51.312;12.372;2023-11-19T13:14:22;12.20;;;2.70;;
3417;SDS011;68007;51.312;12.372;2023-11-19T13:16:50;10.30;;;2.70;;
3417;SDS011;68007;51.312;12.372;2023-11-19T13:19:19;11.00;;;3.30;;
3417;SDS011;68007;51.312;12.372;2023-11-19T13:21:49;9.70;;;2.80;;
3417;SDS011;68007;51.312;12.372;2023-11-19T13:24:16;7.27;;;2.47;;
3417;SDS011;68007;51.312;12.372;2023-11-19T13:26:45;10.83;;;2.77;;
3417;SDS011;68007;51.312;12.372;2023-11-19T13:29:13;12.83;;;3.47;;
3417;SDS011;68007;51.312;12.372;2023-11-19T13:31:40;8.10;;;2.90;;
3417;SDS011;68007;51.312;12.372;2023-11-19T13:34:08;12.60;;;3.10;;
3417;SDS011;68007;51.312;12.372;2023-11-19T13:36:35;14.03;;;2.83;;
3417;SDS011;68007;51.312;12.372;2023-11-19T13:39:04;14.93;;;3.43;;
3417;SDS011;68007;51.312;12.372;2023-11-19T13:41:33;10.10;;;3.20;;
3417;SDS011;68007;51.312;12.372;2023-11-19T13:44:01;13.87;;;3.07;;
3417;SDS011;68007;51.312;12.372;2023-11-19T13:46:29;10.00;;;2.60;;
3417;SDS011;68007;51.312;12.372;2023-11-19T13:48:56;12.60;;;3.13;;
3417;SDS011;68007;51.312;12.372;2023-11-19T13:51:24;10.90;;;3.10;;
3417;SDS011;68007;51.312;12.372;2023-11-19T13:53:51;11.03;;;2.77;;
3417;SDS011;68007;51.312;12.372;2023-11-19T13:56:19;8.87;;;2.83;;
3417;SDS011;68007;51.312;12.372;2023-11-19T13:58:47;8.33;;;2.67;;
3417;SDS011;68007;51.312;12.372;2023-11-19T14:01:16;14.73;;;4.27;;
3417;SDS011;68007;51.312;12.372;2023-11-19T14:03:44;15.30;;;2.90;;
3417;SDS011;68007;51.312;12.372;2023-11-19T14:06:11;17.43;;;3.47;;
3417;SDS011;68007;51.312;12.372;2023-11-19T14:08:39;15.30;;;3.50;;
3417;SDS011;68007;51.312;12.372;2023-11-19T14:11:06;15.33;;;3.67;;
3417;SDS011;68007;51.312;12.372;2023-11-19T14:13:34;12.70;;;3.70;;
3417;SDS011;68007;51.312;12.372;2023-11-19T14:16:01;10.53;;;3.50;;
3417;SDS011;68007;51.312;12.372;2023-11-19T14:18:34;10.70;;;3.37;;
3417;SDS011;68007;51.312;12.372;2023-11-19T14:21:01;14.40;;;3.27;;
3417;SDS011;68007;51.312;12.372;2023-11-19T14:23:30;13.20;;;3.40;;
3417;SDS011;68007;51.312;12.372;2023-11-19T14:25:58;7.90;;;2.70;;
3417;SDS011;68007;51.312;12.372;2023-11-19T14:28:25;10.47;;;2.57;;
3417;SDS011;68007;51.312;12.372;2023-11-19T14:30:53;10.40;;;2.93;;
3417;SDS011;68007;51.312;12.372;2023-11-19T14:33:22;10.20;;;2.90;;
3417;SDS011;68007;51.312;12.372;2023-11-19T14:35:51;11.93;;;3.20;;
3417;SDS011;68007;51.312;12.372;2023-11-19T14:38:19;15.60;;;3.63;;
3417;SDS011;68007;51.312;12.372;2023-11-19T14:40:46;11.57;;;2.53;;
3417;SDS011;68007;51.312;12.372;2023-11-19T14:43:14;10.83;;;3.17;;
3417;SDS011;68007;51.312;12.372;2023-11-19T14:45:45;13.20;;;2.53;;
3417;SDS011;68007;51.312;12.372;2023-11-19T14:48:12;12.33;;;2.80;;
3417;SDS011;68007;51.312;12.372;2023-11-19T14:50:40;12.53;;;3.20;;
3417;SDS011;68007;51.312;12.372;2023-11-19T14:53:09;10.43;;;2.93;;
3417;SDS011;68007;51.312;12.372;2023-11-19T14:55:36;14.23;;;2.97;;
3417;SDS011;68007;51.312;12.372;2023-11-19T14:58:04;9.00;;;2.53;;